Main page
METAR-TAF:

METAR-TAF

Airports :

Murmansk Airport

Murmansk, Russia

latitude: 68-58N, longitude: 033-03E, elevation: 51 m

Current weather observation

The report was made 44 minutes ago, at 22:00 UTC
Wind 2 kt from the North/Northwest
Temperature 13°C
Humidity 100%
Pressure 1018 hPa
Visibility 10 km or more
no clouds below 1500 m and no cumulonimbus

METAR: ULMM 092200Z 33001MPS CAVOK 13/13 Q1018 R13/090070 NOSIG RMK QFE756

Time: 01:44 (22:44 UTC)

Forecast

The report was made 2 hours and 54 minutes ago, at 19:50 UTC
Forecast valid from 09 at 21 UTC to 10 at 21 UTC
Wind 6 kt from the South/Southwest
Visibility: 6000 m
Broken clouds at a height of 1600 ft, Cumulonimbus.
Temporary
from 10 at 09 UTC to 10 at 21 UTC
Wind 10 kt from the Southwest with gusts up to 19 kt

TAF: ULMM 091950Z 0921/1021 20003MPS 6000 BKN016CB TEMPO 1009/1021 23005G10MPS

Weather observations and forecasts of more than 4000 airports (METAR and TAF reports).

The available stations are represented by yellow and red dots on the map.

Hover mouse over dot to see the name of the station.

Then click to see weather observations and forecasts.

To change the map : click on the green buttons with a black cross to zoom in, on the green button with a dash to zoom out, or on the green arrows for adjacent maps.


METAR-TAF: